Time;durP1;ratioP1;P1;durP2;ratioP2;P2;SDS_P1;SDS_P2;PMS_P1;PMS_P2;Temp;Humidity;BMP_temperature;BMP_pressure;BME280_temperature;BME280_humidity;BME280_pressure;Samples;Min_cycle;Max_cycle;Signal;HPM_P1;HPM_P2
2023/09/12 00:01:52;;;;;;;;;;;;;;;25.82;51.75;100599.28;5117807;28;20051;-84
2023/09/12 00:04:46;;;;;;;7.50;5.20;;;;;;;25.79;51.99;100590.97;5118004;28;19915;-84
2023/09/12 00:07:41;;;;;;;6.80;5.00;;;;;;;25.77;51.98;100596.19;5118568;28;20038;-85
2023/09/12 00:10:33;;;;;;;;;;;;;;;25.75;52.11;100602.16;5118150;28;20047;-83
2023/09/12 00:13:25;;;;;;;8.65;4.93;;;;;;;25.72;51.90;100599.44;5119363;28;19912;-83
2023/09/12 00:16:20;;;;;;;7.13;5.28;;;;;;;25.71;51.94;100604.22;5117527;28;20042;-84
2023/09/12 00:19:14;;;;;;;7.78;4.85;;;;;;;25.68;51.96;100593.13;5121126;28;20403;-84
2023/09/12 00:22:09;;;;;;;8.68;5.70;;;;;;;25.64;52.17;100587.63;5118018;28;20046;-84
2023/09/12 00:25:04;;;;;;;9.57;5.38;;;;;;;25.64;52.35;100592.41;5116120;28;20052;-85
2023/09/12 00:27:59;;;;;;;5.70;4.63;;;;;;;25.64;52.04;100589.63;5119860;28;20042;-85
2023/09/12 00:30:49;;;;;;;;;;;;;;;25.64;52.24;100589.63;5118101;28;20047;-85
2023/09/12 00:33:44;;;;;;;8.50;5.75;;;;;;;25.62;52.00;100580.88;5117196;28;19912;-84
2023/09/12 00:36:36;;;;;;;8.35;4.60;;;;;;;25.57;52.40;100587.72;5117616;28;20047;-85
2023/09/12 00:39:31;;;;;;;6.45;5.07;;;;;;;25.58;52.07;100580.16;5122259;28;20054;-84
2023/09/12 00:42:26;;;;;;;9.35;4.80;;;;;;;25.58;52.43;100583.75;5115981;28;20046;-84
2023/09/12 00:45:21;;;;;;;6.45;4.88;;;;;;;25.56;52.49;100577.78;5117338;28;20414;-84
2023/09/12 00:48:18;;;;;;;7.18;5.18;;;;;;;25.55;52.05;100579.78;5117498;28;20046;-84
2023/09/12 00:51:12;;;;;;;9.05;5.75;;;;;;;25.53;52.19;100576.63;5117005;28;20046;-84
2023/09/12 00:54:04;;;;;;;8.52;4.60;;;;;;;25.53;51.91;100573.84;5122124;28;20714;-85
2023/09/12 00:56:56;;;;;;;;;;;;;;;25.53;52.35;100576.63;5117545;28;20066;-84
2023/09/12 00:59:51;;;;;;;7.07;5.35;;;;;;;25.50;52.09;100566.28;5116908;28;19930;-84
2023/09/12 01:02:51;;;;;;;5.45;4.88;;;;;;;25.48;52.38;100562.38;5120580;28;20047;-84
2023/09/12 01:05:45;;;;;;;6.18;4.78;;;;;;;25.47;52.36;100578.28;5118376;28;20050;-84
2023/09/12 01:08:38;;;;;;;;;;;;;;;25.46;52.17;100571.13;5122224;28;20042;-85
2023/09/12 01:11:30;;;;;;;7.80;4.53;;;;;;;25.45;52.19;100568.75;5118877;28;20378;-84
2023/09/12 01:14:25;;;;;;;5.88;4.95;;;;;;;25.43;52.29;100573.97;5116543;28;20043;-85
2023/09/12 01:17:17;;;;;;;;;;;;;;;25.42;52.38;100577.97;5121366;28;20051;-85
2023/09/12 01:20:11;;;;;;;6.40;4.95;;;;;;;25.40;52.37;100569.25;5117003;28;19912;-83
2023/09/12 01:23:31;;;;;;;7.70;4.40;;;;;;;25.37;52.47;100572.88;5115614;28;20046;-84
2023/09/12 01:26:45;;;;;;;6.90;5.00;;;;;;;25.37;52.59;100573.66;5118227;28;20059;-84
2023/09/12 01:29:41;;;;;;;6.65;5.65;;;;;;;25.33;52.65;100570.16;5116228;28;20043;-84
2023/09/12 01:32:38;;;;;;;9.07;5.75;;;;;;;25.33;52.71;100572.94;5116970;28;20413;-84
2023/09/12 01:35:32;;;;;;;6.10;5.25;;;;;;;25.33;52.68;100581.28;5114930;28;20047;-84
2023/09/12 01:38:27;;;;;;;9.77;5.55;;;;;;;25.31;52.75;100574.53;5119435;28;20051;-85
2023/09/12 01:41:22;;;;;;;7.03;5.30;;;;;;;25.29;52.78;100577.78;5115357;28;20645;-84
2023/09/12 01:44:17;;;;;;;7.97;5.35;;;;;;;25.31;52.71;100575.34;5120793;28;20414;-85
2023/09/12 01:47:12;;;;;;;5.75;5.13;;;;;;;25.28;52.69;100570.63;5117701;28;20043;-84
2023/09/12 01:50:07;;;;;;;5.85;4.93;;;;;;;25.27;52.66;100569.03;5115326;28;20509;-84
2023/09/12 01:53:00;;;;;;;6.45;5.50;;;;;;;25.27;52.98;100568.25;5116496;28;20059;-84
2023/09/12 01:55:57;;;;;;;6.35;5.05;;;;;;;25.25;52.79;100571.44;5116524;28;20050;-84
2023/09/12 01:58:49;;;;;;;6.95;5.72;;;;;;;25.24;52.74;100567.09;5120149;28;20054;-84
2023/09/12 02:01:43;;;;;;;6.45;5.75;;;;;;;25.25;52.72;100565.06;5116743;28;20074;-85
2023/09/12 02:04:38;;;;;;;6.95;5.15;;;;;;;25.23;52.79;100561.94;5115531;28;20043;-84
2023/09/12 02:07:38;;;;;;;11.48;5.28;;;;;;;25.21;53.06;100565.13;5115839;28;20069;-85
2023/09/12 02:10:33;;;;;;;5.80;5.20;;;;;;;25.20;52.85;100562.75;5115293;28;20225;-83
2023/09/12 02:13:25;;;;;;;;;;;;;;;25.21;52.93;100564.34;5119547;28;20411;-84
2023/09/12 02:16:19;;;;;;;9.13;5.20;;;;;;;25.17;52.75;100569.97;5117649;28;19911;-84
2023/09/12 02:19:10;;;;;;;8.65;5.60;;;;;;;25.16;52.89;100573.94;5114378;28;20051;-85
2023/09/12 02:22:02;;;;;;;6.78;5.10;;;;;;;25.13;53.01;100570.03;5115135;28;20402;-84
2023/09/12 02:24:56;;;;;;;8.32;4.82;;;;;;;25.14;53.12;100574.34;5115070;28;20410;-85
2023/09/12 02:27:48;;;;;;;;;;;;;;;25.14;52.99;100574.34;5114977;28;20537;-85
2023/09/12 02:30:43;;;;;;;8.88;5.90;;;;;;;25.12;52.89;100567.66;5117606;28;19915;-84
2023/09/12 02:33:37;;;;;;;9.88;6.22;;;;;;;25.11;53.13;100566.06;5115237;28;20402;-84
2023/09/12 02:36:32;;;;;;;8.43;5.18;;;;;;;25.10;53.00;100564.47;5115799;28;20055;-84
2023/09/12 02:39:24;;;;;;;8.32;5.45;;;;;;;25.08;52.94;100567.72;5114947;28;20043;-85
2023/09/12 02:42:20;;;;;;;6.15;5.15;;;;;;;25.07;53.03;100573.69;5114915;28;20054;-84
2023/09/12 02:45:14;;;;;;;6.75;5.00;;;;;;;25.06;53.05;100575.66;5117717;28;20042;-85
2023/09/12 02:48:04;;;;;;;;;;;;;;;25.06;53.25;100572.88;5115750;28;20054;-84
2023/09/12 02:50:58;;;;;;;6.75;5.15;;;;;;;25.01;53.36;100567.78;5118086;28;19911;-84
2023/09/12 02:53:51;;;;;;;8.27;4.90;;;;;;;25.02;53.20;100568.56;5116834;28;20046;-84
2023/09/12 02:56:43;;;;;;;6.90;5.47;;;;;;;25.00;53.22;100563.41;5112680;28;20512;-84
2023/09/12 02:59:37;;;;;;;6.20;4.97;;;;;;;25.00;53.55;100565.41;5114232;28;20521;-84
2023/09/12 03:02:32;;;;;;;8.48;5.45;;;;;;;24.98;53.32;100562.28;5114137;28;20050;-84
2023/09/12 03:05:26;;;;;;;6.93;5.82;;;;;;;24.97;53.65;100563.47;5114028;28;20047;-84
2023/09/12 03:08:21;;;;;;;8.10;5.50;;;;;;;24.98;53.35;100557.50;5113187;28;20043;-84
2023/09/12 03:11:13;;;;;;;;;;;;;;;24.98;53.35;100562.28;5095135;28;20047;-85
2023/09/12 03:14:07;;;;;;;7.10;4.72;;;;;;;24.95;53.43;100560.31;5096363;28;19920;-84
2023/09/12 03:17:00;;;;;;;;;;;;;;;24.97;53.20;100569.03;5094135;28;20059;-83
2023/09/12 03:19:54;;;;;;;6.78;4.90;;;;;;;24.94;53.48;100561.53;5096634;28;19911;-85
2023/09/12 03:22:50;;;;;;;5.90;5.07;;;;;;;24.92;53.36;100561.94;5095187;28;20518;-85
2023/09/12 03:25:44;;;;;;;6.60;5.57;;;;;;;24.91;53.60;100562.34;5094095;28;20047;-85
2023/09/12 03:28:39;;;;;;;5.93;5.18;;;;;;;24.88;53.75;100568.75;5096553;28;20047;-84
2023/09/12 03:31:29;;;;;;;;;;;;;;;24.92;53.47;100563.94;5114650;28;20046;-83
2023/09/12 03:34:23;;;;;;;8.60;5.53;;;;;;;24.88;53.72;100557.63;5109077;28;19919;-83
2023/09/12 03:37:15;;;;;;;;;;;;;;;24.91;53.61;100556.78;5115469;28;20408;-84
2023/09/12 03:40:12;;;;;;;7.40;5.38;;;;;;;24.86;53.81;100560.00;5113977;28;19915;-84
2023/09/12 03:43:06;;;;;;;7.07;5.35;;;;;;;24.86;53.37;100555.22;5116774;28;20062;-84
2023/09/12 03:46:01;;;;;;;9.48;6.25;;;;;;;24.84;53.83;100556.88;5115020;28;20051;-84
2023/09/12 03:48:55;;;;;;;5.40;4.90;;;;;;;24.83;53.67;100561.63;5117339;28;20046;-84
2023/09/12 03:51:47;;;;;;;7.70;5.63;;;;;;;24.83;53.57;100566.41;5115139;28;20047;-85
2023/09/12 03:54:42;;;;;;;6.85;5.30;;;;;;;24.80;53.52;100567.22;5119052;28;20502;-85
2023/09/12 03:57:37;;;;;;;6.63;4.93;;;;;;;24.81;54.00;100572.38;5114097;28;20046;-84
2023/09/12 04:00:29;;;;;;;;;;;;;;;24.82;53.82;100562.03;5116595;28;20051;-84
2023/09/12 04:03:23;;;;;;;7.05;5.97;;;;;;;24.81;53.89;100560.47;5113463;28;19938;-84
2023/09/12 04:06:18;;;;;;;15.15;5.95;;;;;;;24.80;54.12;100553.31;5119776;28;20035;-84
2023/09/12 04:09:12;;;;;;;13.85;6.93;;;;;;;24.77;53.76;100551.38;5117941;28;20039;-84
2023/09/12 04:12:02;;;;;;;11.35;7.03;;;;;;;24.77;53.52;100562.50;5117940;28;20035;-84
2023/09/12 04:14:59;;;;;;;11.20;6.18;;;;;;;24.74;53.22;100564.09;5114547;28;20500;-84
2023/09/12 04:17:54;;;;;;;7.68;5.82;;;;;;;24.70;53.10;100558.59;5117674;28;20055;-85
2023/09/12 04:20:46;;;;;;;;;;;;;;;24.71;52.84;100571.31;5119650;28;20050;-85
2023/09/12 04:23:41;;;;;;;8.88;7.13;;;;;;;24.69;53.13;100573.69;5112868;28;19916;-82
2023/09/12 04:26:33;;;;;;;9.20;6.63;;;;;;;24.67;53.04;100573.34;5107834;28;20612;-84
2023/09/12 04:29:27;;;;;;;8.45;6.47;;;;;;;24.65;52.86;100581.28;5117272;28;20421;-85
2023/09/12 04:32:23;;;;;;;10.90;7.15;;;;;;;24.63;52.73;100574.59;5112261;28;20042;-85
2023/09/12 04:35:17;;;;;;;9.95;6.38;;;;;;;24.62;52.42;100573.00;5118546;28;20038;-83
2023/09/12 04:38:12;;;;;;;12.73;6.72;;;;;;;24.62;52.71;100586.91;5114754;28;20532;-85
2023/09/12 04:41:07;;;;;;;9.98;7.10;;;;;;;24.61;52.78;100586.13;5112774;28;20035;-85
2023/09/12 04:44:01;;;;;;;13.82;7.65;;;;;;;24.60;52.92;100586.53;5113251;28;20039;-85
2023/09/12 04:46:56;;;;;;;8.95;7.88;;;;;;;24.56;52.73;100586.56;5112427;28;20060;-85
2023/09/12 04:49:48;;;;;;;14.30;7.75;;;;;;;24.52;52.21;100593.38;5117042;28;20050;-85
2023/09/12 04:52:42;;;;;;;11.23;6.78;;;;;;;24.53;52.11;100603.28;5117527;28;20043;-85
2023/09/12 04:55:37;;;;;;;11.57;6.78;;;;;;;24.51;52.26;100589.78;5121196;28;20040;-85
2023/09/12 04:58:31;;;;;;;14.63;6.50;;;;;;;24.49;52.90;100596.97;5119189;28;20054;-85
2023/09/12 05:01:26;;;;;;;12.02;7.53;;;;;;;24.47;52.69;100597.38;5118820;28;20042;-84
2023/09/12 05:04:21;;;;;;;13.25;7.18;;;;;;;24.46;52.85;100604.16;5118326;28;20043;-84
2023/09/12 05:07:15;;;;;;;16.65;8.35;;;;;;;24.45;52.93;100605.34;5125311;27;20048;-85
2023/09/12 05:10:10;;;;;;;13.73;7.00;;;;;;;24.44;52.64;100600.19;5115880;27;20035;-84
2023/09/12 05:13:02;;;;;;;12.40;7.55;;;;;;;24.40;52.80;100611.34;5115882;28;20036;-85
2023/09/12 05:15:56;;;;;;;14.75;7.20;;;;;;;24.41;52.72;100615.72;5113301;28;20035;-84
2023/09/12 05:18:51;;;;;;;12.95;6.03;;;;;;;24.41;52.89;100623.25;5119138;28;20054;-84
2023/09/12 05:21:46;;;;;;;13.30;7.68;;;;;;;24.40;52.79;100621.69;5107941;28;20035;-84
2023/09/12 05:24:39;;;;;;;10.52;7.40;;;;;;;24.40;52.53;100621.69;5109065;28;20044;-83
2023/09/12 05:27:31;;;;;;;16.30;6.50;;;;;;;24.35;52.77;100628.47;5115822;28;20047;-84
2023/09/12 05:30:23;;;;;;;12.43;7.50;;;;;;;24.38;52.90;100632.44;5111845;28;20040;-84
2023/09/12 05:33:17;;;;;;;11.38;6.53;;;;;;;24.36;52.49;100634.81;5116481;28;20031;-84
2023/09/12 05:36:08;;;;;;;19.88;7.45;;;;;;;24.33;52.76;100633.63;5118548;28;20036;-84
2023/09/12 05:39:02;;;;;;;14.23;8.30;;;;;;;24.35;52.68;100641.56;5110670;28;20403;-84
2023/09/12 05:41:57;;;;;;;27.17;8.07;;;;;;;24.33;52.80;100639.19;5117251;28;20039;-84
2023/09/12 05:44:49;;;;;;;12.23;7.90;;;;;;;24.33;52.61;100639.19;5095306;28;20047;-84
2023/09/12 05:47:44;;;;;;;17.58;7.78;;;;;;;24.32;52.65;100634.06;5103311;28;20051;-84
2023/09/12 05:50:39;;;;;;;13.88;7.88;;;;;;;24.32;52.64;100631.28;5111687;28;20047;-84
2023/09/12 05:53:33;;;;;;;21.25;8.57;;;;;;;24.32;52.81;100634.88;5115322;28;20043;-84
2023/09/12 05:56:28;;;;;;;18.75;7.45;;;;;;;24.31;53.25;100636.06;5103801;28;20102;-84
2023/09/12 05:59:22;;;;;;;22.63;8.88;;;;;;;24.31;53.48;100633.28;5111831;28;20039;-84
2023/09/12 06:02:17;;;;;;;14.90;7.85;;;;;;;24.31;53.41;100640.81;5111816;28;20540;-84
2023/09/12 06:05:11;;;;;;;14.38;7.45;;;;;;;24.28;53.75;100648.78;5111427;28;20043;-84
2023/09/12 06:08:03;;;;;;;12.20;8.32;;;;;;;24.29;53.80;100638.44;5114613;28;20039;-84
2023/09/12 06:10:58;;;;;;;13.20;7.78;;;;;;;24.29;53.99;100650.34;5098698;28;20043;-84
2023/09/12 06:13:53;;;;;;;15.57;8.60;;;;;;;24.29;54.15;100650.34;5105333;28;20028;-84
2023/09/12 06:16:47;;;;;;;22.88;8.00;;;;;;;24.31;54.20;100647.19;5107577;28;20040;-84
2023/09/12 06:19:39;;;;;;;12.10;8.43;;;;;;;24.31;54.21;100661.06;5107730;28;20035;-84
2023/09/12 06:22:31;;;;;;;18.02;8.40;;;;;;;24.33;54.46;100658.66;5103439;28;20401;-85
2023/09/12 06:25:26;;;;;;;15.05;8.52;;;;;;;24.34;54.13;100665.00;5104834;28;20040;-84
2023/09/12 06:28:30;;;;;;;13.10;9.48;;;;;;;24.37;54.15;100664.22;5106090;28;20035;-84
2023/09/12 06:31:25;;;;;;;19.50;8.80;;;;;;;24.40;54.16;100666.94;5110025;28;20048;-84
2023/09/12 06:34:20;;;;;;;18.10;8.38;;;;;;;24.42;54.19;100669.31;5110458;28;20039;-83
2023/09/12 06:37:12;;;;;;;;;;;;;;;24.47;53.88;100671.66;5110789;28;20047;-83
2023/09/12 06:40:07;;;;;;;16.02;9.02;;;;;;;24.47;53.90;100672.47;5112384;28;20305;-83
2023/09/12 06:43:01;;;;;;;13.10;8.43;;;;;;;24.50;53.83;100670.84;5094258;28;20036;-83
2023/09/12 06:45:52;;;;;;;16.25;9.07;;;;;;;24.52;53.80;100672.00;5101488;28;20415;-84
2023/09/12 06:48:44;;;;;;;13.50;9.57;;;;;;;24.56;53.77;100667.19;5115143;28;20418;-84
2023/09/12 06:51:38;;;;;;;14.63;10.18;;;;;;;24.61;53.77;100663.19;5114514;28;20047;-84
2023/09/12 06:54:33;;;;;;;17.65;10.50;;;;;;;24.64;53.52;100665.94;5112587;28;20502;-84
2023/09/12 06:57:27;;;;;;;14.00;10.00;;;;;;;24.68;53.72;100663.91;5115457;28;20518;-83
2023/09/12 07:00:20;;;;;;;;;;;;;;;24.76;53.63;100675.75;5114716;28;20357;-84
2023/09/12 07:03:14;;;;;;;16.83;9.57;;;;;;;24.78;53.58;100661.44;5111964;28;19915;-83
2023/09/12 07:06:08;;;;;;;14.57;10.13;;;;;;;24.82;53.23;100667.75;5109868;28;20041;-91
2023/09/12 07:08:58;;;;;;;18.60;9.05;;;;;;;24.85;53.12;100676.03;5111691;28;20333;-84
2023/09/12 07:11:53;;;;;;;19.10;11.68;;;;;;;24.91;53.14;100668.88;5102320;28;20057;-83
2023/09/12 07:14:43;;;;;;;;;;;;;;;24.96;53.25;100681.53;5113492;28;20031;-84
2023/09/12 07:17:35;;;;;;;12.07;9.25;;;;;;;24.98;52.52;100687.47;5101782;28;19920;-84
2023/09/12 07:20:29;;;;;;;21.45;10.35;;;;;;;25.02;52.22;100685.44;5102525;28;20071;-84
2023/09/12 07:23:24;;;;;;;15.02;8.43;;;;;;;25.06;51.98;100687.00;5106493;28;20499;-84
2023/09/12 07:26:19;;;;;;;19.50;9.70;;;;;;;25.11;51.65;100686.53;5110803;28;20036;-84
2023/09/12 07:29:14;;;;;;;15.80;10.07;;;;;;;25.16;51.50;100690.84;5105837;28;20039;-84
2023/09/12 07:32:08;;;;;;;15.93;9.13;;;;;;;25.22;50.91;100700.34;5108685;28;20403;-84
2023/09/12 07:35:03;;;;;;;12.52;8.25;;;;;;;25.20;51.11;100688.81;5110753;28;20062;-84
2023/09/12 07:37:58;;;;;;;12.73;8.60;;;;;;;25.30;50.54;100693.47;5121406;28;20044;-84
2023/09/12 07:40:50;;;;;;;;;;;;;;;25.37;50.58;100700.94;5119618;28;20414;-84
2023/09/12 07:43:42;;;;;;;11.18;7.50;;;;;;;25.39;50.16;100692.97;5122990;28;19916;-84
2023/09/12 07:46:36;;;;;;;16.63;8.60;;;;;;;25.43;50.09;100700.09;5120693;28;20040;-84
2023/09/12 07:49:31;;;;;;;10.82;7.40;;;;;;;25.47;50.29;100706.38;5118352;28;20036;-84
2023/09/12 07:52:23;;;;;;;;;;;;;;;25.54;50.12;100705.53;5119549;28;20402;-80
2023/09/12 07:55:17;;;;;;;14.85;9.40;;;;;;;25.56;50.00;100705.91;5116243;28;19916;-79
2023/09/12 07:58:09;;;;;;;;;;;;;;;25.62;50.11;100709.81;5114921;28;20043;-80
2023/09/12 08:01:09;;;;;;;12.20;8.50;;;;;;;25.63;49.76;100708.59;5115494;28;19912;-80
2023/09/12 08:04:04;;;;;;;16.92;8.70;;;;;;;25.68;49.66;100712.91;5098547;28;20043;-79
2023/09/12 08:06:58;;;;;;;13.15;9.20;;;;;;;25.73;49.16;100720.81;5102999;28;20051;-79
2023/09/12 08:09:57;;;;;;;18.45;8.60;;;;;;;25.76;49.03;100717.97;5118188;28;20035;-80
2023/09/12 08:12:52;;;;;;;14.52;8.35;;;;;;;25.79;49.05;100727.50;5103283;28;20490;-81
2023/09/12 08:15:46;;;;;;;13.68;7.97;;;;;;;25.82;48.78;100729.44;5117938;28;20034;-80
2023/09/12 08:18:38;;;;;;;11.43;7.35;;;;;;;25.83;48.62;100731.03;5117281;28;20416;-79
2023/09/12 08:21:33;;;;;;;11.65;6.68;;;;;;;25.87;48.45;100731.75;5117525;28;20043;-80
2023/09/12 08:24:27;;;;;;;18.75;7.20;;;;;;;25.90;48.27;100733.72;5114164;28;20414;-81
2023/09/12 08:27:22;;;;;;;10.43;6.30;;;;;;;25.93;48.29;100732.88;5113614;28;20040;-80
2023/09/12 08:30:17;;;;;;;15.68;8.00;;;;;;;25.96;47.61;100735.59;5116693;28;20050;-79
2023/09/12 08:33:06;;;;;;;;;;;;;;;26.03;47.57;100729.16;5113027;28;20032;-81
2023/09/12 08:36:01;;;;;;;11.60;6.82;;;;;;;26.06;47.31;100725.50;5121774;28;19911;-81
2023/09/12 08:38:55;;;;;;;16.83;7.60;;;;;;;26.12;47.50;100720.25;5113562;28;20504;-80
2023/09/12 08:41:50;;;;;;;13.43;6.00;;;;;;;26.18;47.45;100732.50;5108746;28;20031;-80
2023/09/12 08:44:44;;;;;;;15.77;6.00;;;;;;;26.21;47.63;100726.88;5105935;28;20036;-79
2023/09/12 08:47:35;;;;;;;;;;;;;;;26.29;47.53;100733.97;5113992;27;20040;-80
2023/09/12 08:50:31;;;;;;;12.98;6.93;;;;;;;26.31;47.51;100737.09;5120942;28;19919;-81
2023/09/12 08:53:26;;;;;;;15.73;8.10;;;;;;;26.37;47.40;100734.63;5118721;28;20517;-81
2023/09/12 08:56:18;;;;;;;;;;;;;;;26.44;47.00;100734.53;5117802;28;20036;-81
2023/09/12 08:59:13;;;;;;;15.38;6.10;;;;;;;26.48;47.35;100738.03;5116670;28;20380;-80
2023/09/12 09:02:12;;;;;;;14.98;6.57;;;;;;;26.53;46.86;100731.19;5116243;28;20509;-81
2023/09/12 09:05:06;;;;;;;19.90;7.50;;;;;;;26.60;47.06;100739.44;5115486;28;20070;-81
2023/09/12 09:08:02;;;;;;;113.18;12.63;;;;;;;26.62;47.39;100734.22;5115834;28;20038;-81
2023/09/12 09:11:06;;;;;;;46.83;7.75;;;;;;;26.68;47.19;100724.94;5105629;28;20036;-80
2023/09/12 09:14:00;;;;;;;29.10;7.57;;;;;;;26.75;47.32;100732.41;5118743;28;20113;-81
2023/09/12 09:16:55;;;;;;;18.40;6.78;;;;;;;26.78;47.23;100726.75;5108791;28;20043;-81
2023/09/12 09:19:47;;;;;;;;;;;;;;;26.84;46.66;100732.66;5099149;28;20036;-80
2023/09/12 09:22:57;;;;;;;12.40;6.05;;;;;;;26.89;47.05;100721.03;5096770;28;19923;-81
2023/09/12 09:25:56;;;;;;;13.80;5.85;;;;;;;26.95;46.45;100727.69;5096549;28;20046;-80
2023/09/12 09:29:03;;;;;;;12.30;6.40;;;;;;;26.98;46.31;100726.81;5111077;27;20117;-81
2023/09/12 09:31:57;;;;;;;10.30;5.60;;;;;;;27.09;46.68;100718.25;5117185;28;20039;-81
2023/09/12 09:34:54;;;;;;;11.10;5.80;;;;;;;27.12;46.50;100707.00;5106876;28;20040;-78
2023/09/12 09:37:49;;;;;;;12.07;6.40;;;;;;;27.18;46.39;100708.09;5110796;28;20050;-81
2023/09/12 09:40:43;;;;;;;15.68;6.75;;;;;;;27.27;46.16;100707.53;5113075;28;20528;-81
2023/09/12 09:43:33;;;;;;;;;;;;;;;27.35;45.93;100708.97;5113436;28;20036;-81
2023/09/12 09:46:27;;;;;;;14.82;6.72;;;;;;;27.37;45.95;100709.34;5116683;28;19916;-82
2023/09/12 09:49:23;;;;;;;20.50;7.60;;;;;;;27.48;45.92;100707.09;5110896;28;20039;-81
2023/09/12 09:52:18;;;;;;;12.07;7.25;;;;;;;27.54;46.27;100710.19;5105415;28;20412;-81
2023/09/12 09:55:19;;;;;;;13.40;5.90;;;;;;;27.59;45.88;100713.28;5105991;28;20044;-80
2023/09/12 09:58:11;;;;;;;15.45;9.50;;;;;;;27.65;46.09;100710.75;5108468;28;20038;-81
2023/09/12 10:01:03;;;;;;;11.23;7.00;;;;;;;27.71;45.82;100703.44;5107108;28;20931;-81
2023/09/12 10:04:02;;;;;;;14.82;6.88;;;;;;;27.79;45.55;100701.28;5112063;28;20035;-81
2023/09/12 10:07:02;;;;;;;10.10;6.80;;;;;;;27.86;45.32;100706.72;5100144;28;20044;-81
2023/09/12 10:09:59;;;;;;;15.45;6.72;;;;;;;27.95;45.43;100704.09;5112508;28;20036;-80
2023/09/12 10:12:59;;;;;;;16.97;8.40;;;;;;;28.04;45.32;100713.47;5099189;28;20050;-79
2023/09/12 10:15:50;;;;;;;13.02;7.15;;;;;;;28.08;45.09;100705.81;5108889;28;20035;-80
2023/09/12 10:18:51;;;;;;;10.75;7.47;;;;;;;28.16;44.97;100705.66;5113187;28;20039;-81
2023/09/12 10:21:54;;;;;;;17.23;7.72;;;;;;;28.24;45.01;100698.69;5112925;28;20035;-80
2023/09/12 10:24:47;;;;;;;26.45;7.88;;;;;;;28.27;44.55;100689.41;5115208;28;20051;-80
2023/09/12 10:27:42;;;;;;;11.80;6.97;;;;;;;28.33;44.55;100696.84;5114660;28;20048;-80
2023/09/12 10:30:35;;;;;;;15.95;6.97;;;;;;;28.39;44.00;100697.09;5112433;28;20035;-82
2023/09/12 10:33:31;;;;;;;12.32;5.75;;;;;;;28.43;44.19;100695.78;5115213;28;20051;-81
2023/09/12 10:36:24;;;;;;;14.10;8.13;;;;;;;28.47;44.05;100696.47;5113436;28;20062;-81
2023/09/12 10:39:17;;;;;;;;;;;;;;;28.54;43.88;100701.13;5114129;28;20059;-80
2023/09/12 10:42:12;;;;;;;12.02;6.20;;;;;;;28.56;43.74;100693.06;5103009;28;20380;-80
2023/09/12 10:45:07;;;;;;;9.27;6.55;;;;;;;28.62;43.60;100696.13;5105360;28;20046;-81
2023/09/12 10:48:02;;;;;;;14.30;7.35;;;;;;;28.67;43.45;100693.56;5108633;28;20050;-81
2023/09/12 10:50:58;;;;;;;10.45;7.05;;;;;;;28.72;43.54;100698.66;5107928;28;20035;-81
2023/09/12 10:53:52;;;;;;;11.07;6.88;;;;;;;28.76;43.27;100692.97;5107303;28;20043;-81
2023/09/12 10:56:44;;;;;;;;;;;;;;;28.79;43.18;100692.91;5110603;28;20031;-80
2023/09/12 10:59:38;;;;;;;13.50;6.55;;;;;;;28.82;42.94;100694.81;5113492;28;19912;-80
2023/09/12 11:02:35;;;;;;;8.90;6.50;;;;;;;28.87;43.13;100690.69;5114498;28;20039;-81
2023/09/12 11:05:37;;;;;;;12.32;6.13;;;;;;;28.94;43.12;100687.69;5119055;28;20043;-80
2023/09/12 11:08:37;;;;;;;9.60;6.97;;;;;;;29.00;43.19;100685.94;5117921;28;20054;-81
2023/09/12 11:11:31;;;;;;;12.23;6.88;;;;;;;29.02;42.66;100679.88;5117995;28;20421;-81
2023/09/12 11:14:23;;;;;;;;;;;;;;;29.09;42.49;100683.28;5119488;28;20050;-81
2023/09/12 11:17:24;;;;;;;12.15;7.82;;;;;;;29.18;42.70;100679.81;5119949;28;19915;-81
2023/09/12 11:20:20;;;;;;;9.93;5.85;;;;;;;29.23;42.20;100673.66;5118937;28;20046;-81
2023/09/12 11:23:18;;;;;;;13.75;8.65;;;;;;;29.26;42.34;100675.56;5114011;28;20047;-80
2023/09/12 11:26:12;;;;;;;17.25;7.28;;;;;;;29.32;42.34;100674.63;5117361;28;20043;-80
2023/09/12 11:29:22;;;;;;;13.27;7.25;;;;;;;29.39;42.23;100676.44;5118288;27;20051;-82
2023/09/12 11:32:29;;;;;;;13.27;6.85;;;;;;;29.44;41.92;100659.06;5109206;28;20034;-80
2023/09/12 11:35:27;;;;;;;14.65;6.13;;;;;;;29.44;41.89;100664.69;5109533;28;20036;-81
2023/09/12 11:38:31;;;;;;;12.30;6.32;;;;;;;29.46;41.87;100661.44;5111532;28;20046;-81
2023/09/12 11:41:42;;;;;;;15.52;6.40;;;;;;;29.49;41.23;100660.53;5112866;28;20040;-80
2023/09/12 11:44:33;;;;;;;12.80;6.80;;;;;;;29.51;41.50;100661.63;5108734;28;20023;-80
2023/09/12 11:47:27;;;;;;;9.35;7.32;;;;;;;29.54;41.41;100662.78;5116004;28;20043;-80
2023/09/12 11:50:38;;;;;;;13.73;7.43;;;;;;;29.58;41.08;100655.84;5119063;28;20046;-81
2023/09/12 11:53:32;;;;;;;13.93;7.72;;;;;;;29.66;41.07;100654.38;5122128;28;20043;-80
2023/09/12 11:56:27;;;;;;;18.23;8.23;;;;;;;29.73;40.77;100642.94;5117833;28;20038;-81
2023/09/12 11:59:20;;;;;;;10.45;7.28;;;;;;;29.80;40.70;100641.94;5118162;28;20276;-80
2023/09/12 12:02:16;;;;;;;11.98;7.30;;;;;;;29.92;40.88;100646.03;5118177;28;20216;-81
2023/09/12 12:05:08;;;;;;;11.50;6.57;;;;;;;29.96;40.79;100638.28;5097070;28;20490;-80
2023/09/12 12:08:00;;;;;;;10.40;7.00;;;;;;;29.97;40.54;100635.00;5097214;28;20048;-80
2023/09/12 12:10:57;;;;;;;8.73;6.13;;;;;;;30.00;40.31;100627.72;5097511;28;20036;-81
2023/09/12 12:13:52;;;;;;;9.65;6.93;;;;;;;29.99;40.20;100628.94;5097358;28;20510;-81
2023/09/12 12:16:47;;;;;;;11.18;5.88;;;;;;;30.07;40.11;100627.50;5097816;28;20047;-81
2023/09/12 12:19:41;;;;;;;9.20;5.72;;;;;;;30.06;40.13;100620.31;5096662;28;20051;-80
2023/09/12 12:22:36;;;;;;;12.00;6.13;;;;;;;30.13;39.33;100606.03;5097785;28;20051;-80
2023/09/12 12:25:33;;;;;;;12.20;6.03;;;;;;;30.15;39.60;100611.97;5097134;28;20044;-81
2023/09/12 12:28:28;;;;;;;11.13;6.30;;;;;;;30.19;39.28;100609.84;5114526;28;20058;-80
2023/09/12 12:31:24;;;;;;;13.43;5.90;;;;;;;30.19;39.48;100612.63;5117473;28;20051;-81
2023/09/12 12:34:23;;;;;;;13.85;6.80;;;;;;;30.24;39.40;100598.03;5117699;28;20031;-80
2023/09/12 12:37:19;;;;;;;11.95;7.60;;;;;;;30.32;38.85;100599.38;5120120;28;20036;-80
2023/09/12 12:40:16;;;;;;;10.23;5.97;;;;;;;30.37;38.96;100598.00;5117455;28;20050;-81
2023/09/12 12:43:23;;;;;;;6.70;5.00;;;;;;;30.38;39.15;100596.75;5116901;28;20035;-80
2023/09/12 12:46:18;;;;;;;10.90;5.38;;;;;;;30.35;38.99;100598.47;5117604;28;20038;-81
2023/09/12 12:49:19;;;;;;;9.82;5.93;;;;;;;30.39;39.26;100584.28;5117001;28;20046;-80
2023/09/12 12:52:15;;;;;;;14.10;6.50;;;;;;;30.44;39.03;100590.13;5118292;28;20051;-80
2023/09/12 12:55:14;;;;;;;11.80;6.72;;;;;;;30.48;38.87;100588.00;5117221;28;20426;-80
2023/09/12 12:58:08;;;;;;;14.57;5.82;;;;;;;30.55;38.73;100579.31;5117243;28;20043;-81
2023/09/12 13:01:03;;;;;;;8.55;6.28;;;;;;;30.61;38.45;100575.94;5116740;28;20050;-80
2023/09/12 13:03:58;;;;;;;6.72;5.40;;;;;;;30.58;38.60;100583.22;5116749;28;20039;-80
2023/09/12 13:06:50;;;;;;;7.80;5.53;;;;;;;30.60;38.65;100575.16;5116523;28;20047;-81
2023/09/12 13:09:42;;;;;;;7.95;5.13;;;;;;;30.62;38.51;100574.69;5116228;28;20046;-81
2023/09/12 13:12:37;;;;;;;14.50;5.75;;;;;;;30.59;38.64;100570.78;5116921;28;20511;-79
2023/09/12 13:15:32;;;;;;;9.27;5.30;;;;;;;30.54;38.80;100563.72;5115966;28;20040;-80
2023/09/12 13:18:26;;;;;;;5.93;4.85;;;;;;;30.57;38.73;100565.63;5116913;28;20071;-80
2023/09/12 13:21:18;;;;;;;11.02;5.75;;;;;;;30.54;38.91;100560.13;5116346;28;20043;-80
2023/09/12 13:24:13;;;;;;;9.00;5.65;;;;;;;30.62;38.57;100560.66;5120702;28;20079;-80
2023/09/12 13:27:07;;;;;;;18.30;7.05;;;;;;;30.63;38.50;100551.00;5116618;28;20043;-80
2023/09/12 13:30:03;;;;;;;12.63;5.72;;;;;;;30.63;38.47;100551.00;5115797;28;20047;-80
2023/09/12 13:32:57;;;;;;;7.38;5.95;;;;;;;30.68;38.49;100550.41;5115721;28;20518;-79
2023/09/12 13:35:55;;;;;;;9.25;5.18;;;;;;;30.68;38.83;100551.19;5116205;28;20054;-80